Terminal Aerodrome Forecast
Issued by NWS Quad Cities IA IL

Home | Current Version | Previous Version | Text Only | Print | Product List | Glossary On
Versions: 1 2 3 4 5 6 7 8 9 10 11 12 13 14 15 16 17 18 19 20 21 22 23
612
FTUS43 KDVN 242134 AAB
TAFMLI
TAF AMD
KMLI 242134Z 2422/2518 20010KT P6SM SCT060
     FM242300 17006KT P6SM VCTS BKN050CB
     FM250100 19004KT P6SM SCT050
     FM250600 16006KT 5SM BR BKN035
     FM251400 17012G18KT P6SM BKN050=

USA.gov is the U.S. government's official web portal to all federal, state and local government web resources and services.